createdAt,value
2022-12-09T00:02:28.988Z,46.00
2022-12-09T00:07:38.819Z,43.20
2022-12-09T00:12:43.885Z,41.57
2022-12-09T00:17:45.697Z,44.23
2022-12-09T00:22:47.426Z,45.80
2022-12-09T00:27:54.695Z,44.53
2022-12-09T00:32:59.439Z,41.13
2022-12-09T00:38:03.928Z,40.63
2022-12-09T00:43:06.410Z,46.43
2022-12-09T00:48:08.239Z,41.70
2022-12-09T00:53:12.277Z,42.07
2022-12-09T00:58:21.171Z,44.40
2022-12-09T01:03:24.190Z,45.50
2022-12-09T01:08:27.312Z,37.60
2022-12-09T01:13:34.117Z,40.70
2022-12-09T01:18:39.687Z,39.67
2022-12-09T01:23:41.847Z,40.63
2022-12-09T01:28:46.599Z,40.40
2022-12-09T01:33:54.927Z,34.90
2022-12-09T01:39:00.194Z,34.60
2022-12-09T01:44:17.043Z,34.63
2022-12-09T01:49:25.274Z,35.40
2022-12-09T01:54:27.326Z,34.20
2022-12-09T01:59:29.781Z,31.30
2022-12-09T02:04:41.079Z,31.10
2022-12-09T02:09:53.509Z,32.23
2022-12-09T02:15:17.359Z,31.87
2022-12-09T02:20:22.997Z,32.27
2022-12-09T02:25:31.718Z,29.97
2022-12-09T02:31:00.024Z,30.57
2022-12-09T02:36:12.344Z,26.87
2022-12-09T02:41:18.467Z,28.43
2022-12-09T02:46:24.355Z,26.40
2022-12-09T02:51:34.072Z,25.87
2022-12-09T02:56:53.555Z,22.63
2022-12-09T03:02:08.311Z,23.53
2022-12-09T03:07:36.065Z,21.93
2022-12-09T03:12:41.794Z,20.80
2022-12-09T03:17:45.382Z,24.00
2022-12-09T03:22:48.282Z,22.73
2022-12-09T03:27:57.264Z,22.03
2022-12-09T03:32:59.599Z,19.90
2022-12-09T03:38:07.836Z,20.00
2022-12-09T03:43:15.489Z,21.97
2022-12-09T03:48:20.294Z,20.30
2022-12-09T03:53:31.696Z,18.57
2022-12-09T03:58:40.495Z,20.43
2022-12-09T04:03:45.098Z,21.67
2022-12-09T04:08:49.441Z,21.53
2022-12-09T04:13:57.073Z,20.53
2022-12-09T04:19:01.712Z,22.27
2022-12-09T04:24:07.425Z,21.37
2022-12-09T04:29:14.122Z,23.40
2022-12-09T04:34:18.653Z,22.50
2022-12-09T04:39:24.660Z,23.63
2022-12-09T04:44:29.438Z,24.03
2022-12-09T04:49:33.562Z,24.77
2022-12-09T04:54:36.668Z,24.03
2022-12-09T04:59:38.904Z,24.80
2022-12-09T05:04:43.410Z,23.43
2022-12-09T05:09:45.771Z,23.70
2022-12-09T05:14:50.720Z,24.23
2022-12-09T05:19:57.468Z,23.43
2022-12-09T05:25:02.453Z,23.80
2022-12-09T05:30:10.276Z,25.80
2022-12-09T05:35:14.837Z,22.27
2022-12-09T05:40:19.452Z,24.33
2022-12-09T05:45:23.018Z,23.53
2022-12-09T05:50:27.431Z,23.90
2022-12-09T05:55:30.758Z,24.03
2022-12-09T06:00:35.223Z,22.47
2022-12-09T06:05:42.728Z,23.80
2022-12-09T06:11:38.919Z,23.90
2022-12-09T06:16:40.950Z,23.87
2022-12-09T06:21:46.100Z,24.27
2022-12-09T06:26:53.868Z,25.80
2022-12-09T06:31:58.891Z,25.10
2022-12-09T06:37:08.674Z,26.23
2022-12-09T06:42:10.764Z,27.07
2022-12-09T06:47:18.396Z,29.50
2022-12-09T06:52:24.133Z,27.93
2022-12-09T06:57:31.736Z,30.07
2022-12-09T07:02:37.264Z,29.60
2022-12-09T07:07:39.789Z,28.00
2022-12-09T07:12:41.844Z,28.73
2022-12-09T07:17:48.488Z,30.47
2022-12-09T07:22:56.170Z,32.77
2022-12-09T07:28:00.246Z,29.33
2022-12-09T07:33:05.533Z,32.63
2022-12-09T07:38:09.784Z,30.23
2022-12-09T07:43:17.431Z,30.00
2022-12-09T07:48:21.770Z,32.10
2022-12-09T07:53:28.534Z,32.03
2022-12-09T07:58:38.363Z,31.97
2022-12-09T08:03:40.501Z,29.83
2022-12-09T08:08:46.588Z,31.93
2022-12-09T08:13:53.344Z,31.17
2022-12-09T08:18:55.636Z,31.30
2022-12-09T08:24:03.248Z,30.63
2022-12-09T08:29:10.205Z,30.87
2022-12-09T08:34:13.721Z,30.57
2022-12-09T08:39:16.339Z,31.83
2022-12-09T08:44:20.238Z,28.93
2022-12-09T08:49:28.218Z,32.63
2022-12-09T08:54:32.700Z,31.27
2022-12-09T08:59:45.014Z,32.50
2022-12-09T09:04:50.133Z,31.53
2022-12-09T09:09:53.422Z,35.07
2022-12-09T09:14:55.659Z,52.00
2022-12-09T09:20:00.145Z,33.87
2022-12-09T09:25:02.379Z,32.43
2022-12-09T09:30:07.656Z,30.03
2022-12-09T09:35:12.003Z,32.90
2022-12-09T09:40:16.879Z,37.78
2022-12-09T09:45:22.051Z,30.10
2022-12-09T09:50:31.978Z,28.93
2022-12-09T09:55:43.982Z,28.67
2022-12-09T10:00:57.727Z,30.97
2022-12-09T10:06:07.931Z,31.20
2022-12-09T10:11:36.857Z,29.23
2022-12-09T10:17:14.166Z,31.33
2022-12-09T10:22:21.256Z,33.30
2022-12-09T10:27:31.548Z,32.00
2022-12-09T10:32:35.639Z,33.63
2022-12-09T10:37:37.714Z,34.07
2022-12-09T10:43:08.836Z,43.80
2022-12-09T10:48:40.424Z,37.77
2022-12-09T10:54:21.028Z,34.27
2022-12-09T10:59:30.774Z,37.17
2022-12-09T11:04:40.896Z,32.90
2022-12-09T11:09:51.657Z,31.60
2022-12-09T11:15:07.531Z,32.43
2022-12-09T11:20:20.322Z,22.67
2022-12-09T11:25:28.073Z,22.90
2022-12-09T11:31:04.783Z,20.43
2022-12-09T11:36:29.775Z,20.37
2022-12-09T11:41:51.504Z,20.93
2022-12-09T11:47:06.250Z,17.37
2022-12-09T11:52:18.002Z,21.50
2022-12-09T11:57:41.709Z,19.53
2022-12-09T12:02:47.740Z,21.00
2022-12-09T12:08:03.986Z,20.03
2022-12-09T12:13:29.855Z,20.03
2022-12-09T12:18:38.312Z,20.40
2022-12-09T12:23:47.203Z,23.60
2022-12-09T12:28:54.879Z,20.83
2022-12-09T12:34:25.802Z,20.53
2022-12-09T12:40:26.568Z,21.17
2022-12-09T12:46:03.927Z,21.10
2022-12-09T12:51:34.295Z,19.53
2022-12-09T12:57:18.658Z,32.10
2022-12-09T13:02:37.825Z,27.60
2022-12-09T13:07:46.274Z,29.27
2022-12-09T13:12:54.160Z,30.10
2022-12-09T13:17:58.179Z,30.93
2022-12-09T13:23:20.195Z,31.80
2022-12-09T13:28:48.151Z,32.00
2022-12-09T13:34:00.188Z,33.57
2022-12-09T13:39:01.965Z,32.87
2022-12-09T13:44:12.705Z,34.80
2022-12-09T13:49:23.962Z,32.80
2022-12-09T13:54:31.902Z,30.93
2022-12-09T13:59:59.342Z,32.80
2022-12-09T14:05:11.128Z,29.90
2022-12-09T14:10:53.102Z,30.67
2022-12-09T14:16:28.717Z,29.37
2022-12-09T14:21:33.533Z,31.13
2022-12-09T14:26:58.632Z,28.87
2022-12-09T14:32:06.427Z,30.70
2022-12-09T14:37:15.080Z,30.13
2022-12-09T14:42:30.936Z,30.53
2022-12-09T14:47:34.397Z,32.20
2022-12-09T14:52:36.240Z,31.33
2022-12-09T14:57:45.078Z,33.33
2022-12-09T15:03:31.014Z,36.47
2022-12-09T15:08:31.880Z,40.20
2022-12-09T15:13:35.659Z,35.17
2022-12-09T15:18:46.334Z,34.83
2022-12-09T15:23:48.073Z,34.93
2022-12-09T15:28:56.116Z,34.70
2022-12-09T15:34:24.756Z,36.50
2022-12-09T15:39:29.110Z,36.10
2022-12-09T15:44:33.518Z,37.47
2022-12-09T15:49:46.536Z,36.40
2022-12-09T15:54:49.947Z,42.20
2022-12-09T15:59:57.111Z,54.20
2022-12-09T16:05:04.695Z,41.60
2022-12-09T16:10:13.567Z,50.77
2022-12-09T16:15:43.746Z,45.70
2022-12-09T16:21:09.256Z,34.73
2022-12-09T16:26:20.352Z,41.20
2022-12-09T16:31:24.458Z,42.73
2022-12-09T16:36:32.035Z,41.23
2022-12-09T16:41:52.624Z,41.57
2022-12-09T16:47:12.229Z,41.67
2022-12-09T16:52:27.006Z,41.87
2022-12-09T16:57:35.430Z,43.10
2022-12-09T17:02:41.675Z,44.80
2022-12-09T17:07:48.581Z,39.77
2022-12-09T17:12:56.979Z,40.80
2022-12-09T17:17:58.751Z,38.20
2022-12-09T17:23:00.441Z,38.47
2022-12-09T17:28:07.185Z,40.13
2022-12-09T17:33:08.936Z,39.93
2022-12-09T17:38:13.634Z,41.63
2022-12-09T17:43:22.363Z,40.90
2022-12-09T17:48:28.925Z,40.40
2022-12-09T17:53:37.824Z,41.43
2022-12-09T17:58:53.827Z,44.07
2022-12-09T18:04:04.354Z,36.77
2022-12-09T18:09:10.295Z,35.67
2022-12-09T18:14:14.921Z,26.20
2022-12-09T18:19:20.257Z,36.60
2022-12-09T18:24:22.192Z,37.10
2022-12-09T18:29:28.186Z,40.53
2022-12-09T18:34:32.906Z,40.53
2022-12-09T18:39:36.994Z,43.07
2022-12-09T18:44:41.014Z,57.90
2022-12-09T18:49:45.279Z,67.07
2022-12-09T18:54:47.726Z,57.57
2022-12-09T18:59:52.760Z,60.23
2022-12-09T19:04:56.699Z,51.17
2022-12-09T19:10:05.899Z,44.90
2022-12-09T19:15:08.497Z,48.53
2022-12-09T19:20:17.615Z,55.07
2022-12-09T19:25:21.955Z,45.63
2022-12-09T19:30:26.982Z,48.13
2022-12-09T19:35:31.293Z,48.50
2022-12-09T19:40:32.967Z,44.47
2022-12-09T19:45:34.898Z,45.30
2022-12-09T19:50:37.055Z,43.57
2022-12-09T19:55:38.795Z,45.50
2022-12-09T20:00:42.721Z,45.43
2022-12-09T20:05:53.020Z,43.73
2022-12-09T20:10:57.243Z,44.77
2022-12-09T20:16:08.751Z,43.47
2022-12-09T20:21:14.544Z,47.47
2022-12-09T20:26:17.989Z,49.07
2022-12-09T20:31:23.365Z,49.67
2022-12-09T20:36:29.732Z,53.30
2022-12-09T20:41:32.541Z,54.33
2022-12-09T20:46:35.062Z,56.40
2022-12-09T20:51:40.264Z,58.27
2022-12-09T20:56:42.453Z,60.30
2022-12-09T21:01:49.900Z,58.83
2022-12-09T21:06:54.544Z,58.20
2022-12-09T21:11:57.902Z,61.47
2022-12-09T21:17:06.654Z,64.40
2022-12-09T21:22:12.814Z,61.40
2022-12-09T21:27:17.130Z,64.23
2022-12-09T21:32:18.883Z,62.87
2022-12-09T21:37:21.713Z,63.90
2022-12-09T21:42:23.521Z,61.50
2022-12-09T21:47:27.536Z,64.03
2022-12-09T21:52:29.212Z,61.90
2022-12-09T21:57:37.970Z,64.63
2022-12-09T22:02:44.166Z,60.47
2022-12-09T22:07:50.526Z,64.43
2022-12-09T22:12:53.662Z,66.63
2022-12-09T22:17:57.854Z,56.30
2022-12-09T22:23:04.018Z,60.07
2022-12-09T22:28:10.644Z,61.80
2022-12-09T22:33:17.110Z,64.20
2022-12-09T22:38:18.793Z,64.27
2022-12-09T22:43:23.749Z,63.57
2022-12-09T22:48:30.340Z,68.60
2022-12-09T22:53:36.475Z,69.47
2022-12-09T22:58:42.889Z,65.40
2022-12-09T23:03:45.811Z,60.13
2022-12-09T23:08:49.501Z,59.83
2022-12-09T23:13:52.173Z,64.07
2022-12-09T23:18:58.382Z,61.07
2022-12-09T23:24:07.128Z,64.47
2022-12-09T23:29:13.774Z,64.67
2022-12-09T23:34:15.995Z,60.37
2022-12-09T23:39:18.867Z,59.67
2022-12-09T23:44:23.548Z,66.80
2022-12-09T23:49:27.988Z,65.37
2022-12-09T23:54:29.713Z,66.90
2022-12-09T23:59:34.023Z,62.63
